sensor_id;sensor_type;location;lat;lon;timestamp;P1;durP1;ratioP1;P2;durP2;ratioP2
51020;SDS011;38907;45.562;8.856;2024-02-14T00:02:46;39.80;;;27.77;;
51020;SDS011;38907;45.562;8.856;2024-02-14T00:07:49;34.40;;;24.02;;
51020;SDS011;38907;45.562;8.856;2024-02-14T00:12:52;34.60;;;22.02;;
51020;SDS011;38907;45.562;8.856;2024-02-14T00:17:54;34.42;;;23.02;;
51020;SDS011;38907;45.562;8.856;2024-02-14T00:22:56;32.33;;;20.70;;
51020;SDS011;38907;45.562;8.856;2024-02-14T00:27:59;34.35;;;22.20;;
51020;SDS011;38907;45.562;8.856;2024-02-14T00:38:03;27.90;;;20.73;;
51020;SDS011;38907;45.562;8.856;2024-02-14T00:43:06;30.08;;;21.58;;
51020;SDS011;38907;45.562;8.856;2024-02-14T00:48:09;34.60;;;22.10;;
51020;SDS011;38907;45.562;8.856;2024-02-14T00:53:10;32.08;;;21.90;;
51020;SDS011;38907;45.562;8.856;2024-02-14T00:58:14;30.15;;;19.75;;
51020;SDS011;38907;45.562;8.856;2024-02-14T01:03:16;28.58;;;19.50;;
51020;SDS011;38907;45.562;8.856;2024-02-14T01:08:18;28.40;;;20.23;;
51020;SDS011;38907;45.562;8.856;2024-02-14T01:13:22;28.15;;;17.95;;
51020;SDS011;38907;45.562;8.856;2024-02-14T01:18:24;25.55;;;18.92;;
51020;SDS011;38907;45.562;8.856;2024-02-14T01:23:26;24.73;;;18.20;;
51020;SDS011;38907;45.562;8.856;2024-02-14T01:28:29;27.20;;;18.75;;
51020;SDS011;38907;45.562;8.856;2024-02-14T01:33:31;72.10;;;31.33;;
51020;SDS011;38907;45.562;8.856;2024-02-14T01:38:33;34.42;;;22.67;;
51020;SDS011;38907;45.562;8.856;2024-02-14T01:43:36;23.58;;;17.50;;
51020;SDS011;38907;45.562;8.856;2024-02-14T01:48:39;29.05;;;17.42;;
51020;SDS011;38907;45.562;8.856;2024-02-14T01:53:42;30.42;;;19.20;;
51020;SDS011;38907;45.562;8.856;2024-02-14T01:58:46;23.88;;;16.75;;
51020;SDS011;38907;45.562;8.856;2024-02-14T02:03:48;22.83;;;16.42;;
51020;SDS011;38907;45.562;8.856;2024-02-14T02:08:50;24.40;;;14.32;;
51020;SDS011;38907;45.562;8.856;2024-02-14T02:13:53;21.50;;;16.17;;
51020;SDS011;38907;45.562;8.856;2024-02-14T02:18:55;26.02;;;16.30;;
51020;SDS011;38907;45.562;8.856;2024-02-14T02:23:58;20.58;;;15.38;;
51020;SDS011;38907;45.562;8.856;2024-02-14T02:29:00;19.38;;;15.48;;
51020;SDS011;38907;45.562;8.856;2024-02-14T02:34:02;25.83;;;17.77;;
51020;SDS011;38907;45.562;8.856;2024-02-14T02:39:05;23.27;;;16.88;;
51020;SDS011;38907;45.562;8.856;2024-02-14T02:44:07;22.80;;;17.05;;
51020;SDS011;38907;45.562;8.856;2024-02-14T02:49:09;23.45;;;17.00;;
51020;SDS011;38907;45.562;8.856;2024-02-14T02:54:15;23.70;;;15.98;;
51020;SDS011;38907;45.562;8.856;2024-02-14T02:59:17;20.98;;;15.73;;
51020;SDS011;38907;45.562;8.856;2024-02-14T03:04:19;21.35;;;16.58;;
51020;SDS011;38907;45.562;8.856;2024-02-14T03:09:22;25.45;;;17.10;;
51020;SDS011;38907;45.562;8.856;2024-02-14T03:14:28;25.48;;;17.17;;
51020;SDS011;38907;45.562;8.856;2024-02-14T03:19:32;25.15;;;16.25;;
51020;SDS011;38907;45.562;8.856;2024-02-14T03:24:39;23.60;;;16.17;;
51020;SDS011;38907;45.562;8.856;2024-02-14T03:29:44;22.45;;;15.02;;
51020;SDS011;38907;45.562;8.856;2024-02-14T03:34:47;22.45;;;14.13;;
51020;SDS011;38907;45.562;8.856;2024-02-14T03:39:50;20.10;;;13.93;;
51020;SDS011;38907;45.562;8.856;2024-02-14T03:44:52;20.33;;;13.50;;
51020;SDS011;38907;45.562;8.856;2024-02-14T03:50:02;17.13;;;13.02;;
51020;SDS011;38907;45.562;8.856;2024-02-14T03:55:06;20.58;;;13.23;;
51020;SDS011;38907;45.562;8.856;2024-02-14T04:00:09;23.70;;;13.52;;
51020;SDS011;38907;45.562;8.856;2024-02-14T04:05:12;19.88;;;14.25;;
51020;SDS011;38907;45.562;8.856;2024-02-14T04:10:15;18.58;;;15.00;;
51020;SDS011;38907;45.562;8.856;2024-02-14T04:15:17;21.13;;;14.63;;
51020;SDS011;38907;45.562;8.856;2024-02-14T04:20:19;22.85;;;16.10;;
51020;SDS011;38907;45.562;8.856;2024-02-14T04:25:22;22.52;;;15.35;;
51020;SDS011;38907;45.562;8.856;2024-02-14T04:30:24;21.17;;;15.57;;
51020;SDS011;38907;45.562;8.856;2024-02-14T04:35:25;18.92;;;14.98;;
51020;SDS011;38907;45.562;8.856;2024-02-14T04:40:29;22.83;;;14.98;;
51020;SDS011;38907;45.562;8.856;2024-02-14T04:45:30;19.35;;;15.23;;
51020;SDS011;38907;45.562;8.856;2024-02-14T04:50:32;20.00;;;14.30;;
51020;SDS011;38907;45.562;8.856;2024-02-14T04:55:35;18.30;;;14.02;;
51020;SDS011;38907;45.562;8.856;2024-02-14T05:00:37;19.02;;;14.23;;
51020;SDS011;38907;45.562;8.856;2024-02-14T05:05:39;19.23;;;13.40;;
51020;SDS011;38907;45.562;8.856;2024-02-14T05:10:42;18.98;;;13.93;;
51020;SDS011;38907;45.562;8.856;2024-02-14T05:15:45;21.73;;;14.95;;
51020;SDS011;38907;45.562;8.856;2024-02-14T05:20:47;18.00;;;12.70;;
51020;SDS011;38907;45.562;8.856;2024-02-14T05:25:50;18.55;;;13.27;;
51020;SDS011;38907;45.562;8.856;2024-02-14T05:30:53;19.95;;;14.52;;
51020;SDS011;38907;45.562;8.856;2024-02-14T05:35:55;25.38;;;16.77;;
51020;SDS011;38907;45.562;8.856;2024-02-14T05:40:58;19.90;;;15.32;;
51020;SDS011;38907;45.562;8.856;2024-02-14T05:46:00;17.83;;;13.25;;
51020;SDS011;38907;45.562;8.856;2024-02-14T05:51:02;18.88;;;13.02;;
51020;SDS011;38907;45.562;8.856;2024-02-14T05:56:06;20.25;;;13.55;;
51020;SDS011;38907;45.562;8.856;2024-02-14T06:01:09;17.92;;;13.68;;
51020;SDS011;38907;45.562;8.856;2024-02-14T06:06:11;19.58;;;13.77;;
51020;SDS011;38907;45.562;8.856;2024-02-14T06:11:14;18.40;;;14.35;;
51020;SDS011;38907;45.562;8.856;2024-02-14T06:16:16;24.15;;;17.90;;
51020;SDS011;38907;45.562;8.856;2024-02-14T06:21:18;29.25;;;20.90;;
51020;SDS011;38907;45.562;8.856;2024-02-14T06:26:21;32.03;;;22.80;;
51020;SDS011;38907;45.562;8.856;2024-02-14T06:31:23;34.17;;;23.08;;
51020;SDS011;38907;45.562;8.856;2024-02-14T06:36:25;32.30;;;21.90;;
51020;SDS011;38907;45.562;8.856;2024-02-14T06:41:28;42.85;;;28.42;;
51020;SDS011;38907;45.562;8.856;2024-02-14T06:46:31;22.55;;;16.52;;
51020;SDS011;38907;45.562;8.856;2024-02-14T06:51:33;22.77;;;15.30;;
51020;SDS011;38907;45.562;8.856;2024-02-14T06:56:36;31.45;;;23.02;;
51020;SDS011;38907;45.562;8.856;2024-02-14T07:01:38;22.33;;;17.73;;
51020;SDS011;38907;45.562;8.856;2024-02-14T07:06:40;28.20;;;18.48;;
51020;SDS011;38907;45.562;8.856;2024-02-14T07:11:43;23.30;;;15.32;;
51020;SDS011;38907;45.562;8.856;2024-02-14T07:16:45;19.58;;;13.50;;
51020;SDS011;38907;45.562;8.856;2024-02-14T07:21:47;23.40;;;16.00;;
51020;SDS011;38907;45.562;8.856;2024-02-14T07:26:50;20.42;;;16.13;;
51020;SDS011;38907;45.562;8.856;2024-02-14T07:31:52;19.13;;;14.88;;
51020;SDS011;38907;45.562;8.856;2024-02-14T07:36:54;19.83;;;14.13;;
51020;SDS011;38907;45.562;8.856;2024-02-14T07:41:57;16.80;;;12.23;;
51020;SDS011;38907;45.562;8.856;2024-02-14T07:46:59;23.73;;;13.27;;
51020;SDS011;38907;45.562;8.856;2024-02-14T07:52:02;19.63;;;11.47;;
51020;SDS011;38907;45.562;8.856;2024-02-14T07:57:06;17.42;;;10.07;;
51020;SDS011;38907;45.562;8.856;2024-02-14T08:02:08;15.00;;;10.10;;
51020;SDS011;38907;45.562;8.856;2024-02-14T08:07:10;17.45;;;10.05;;
51020;SDS011;38907;45.562;8.856;2024-02-14T08:12:13;18.38;;;10.65;;
51020;SDS011;38907;45.562;8.856;2024-02-14T08:17:15;20.02;;;9.63;;
51020;SDS011;38907;45.562;8.856;2024-02-14T08:22:17;17.90;;;11.65;;
51020;SDS011;38907;45.562;8.856;2024-02-14T08:27:20;18.55;;;12.23;;
51020;SDS011;38907;45.562;8.856;2024-02-14T08:32:22;17.98;;;11.23;;
51020;SDS011;38907;45.562;8.856;2024-02-14T08:37:23;21.20;;;11.93;;
51020;SDS011;38907;45.562;8.856;2024-02-14T08:42:27;22.42;;;12.63;;
51020;SDS011;38907;45.562;8.856;2024-02-14T08:47:29;16.92;;;11.82;;
51020;SDS011;38907;45.562;8.856;2024-02-14T08:52:30;18.75;;;12.00;;
51020;SDS011;38907;45.562;8.856;2024-02-14T08:57:34;20.38;;;12.88;;
51020;SDS011;38907;45.562;8.856;2024-02-14T09:02:36;23.77;;;14.18;;
51020;SDS011;38907;45.562;8.856;2024-02-14T09:07:38;25.58;;;14.02;;
51020;SDS011;38907;45.562;8.856;2024-02-14T09:12:43;16.83;;;13.00;;
51020;SDS011;38907;45.562;8.856;2024-02-14T09:17:44;22.88;;;12.77;;
51020;SDS011;38907;45.562;8.856;2024-02-14T09:22:46;20.17;;;12.63;;
51020;SDS011;38907;45.562;8.856;2024-02-14T09:27:49;18.83;;;11.23;;
51020;SDS011;38907;45.562;8.856;2024-02-14T09:32:51;15.50;;;11.32;;
51020;SDS011;38907;45.562;8.856;2024-02-14T09:37:53;19.85;;;12.55;;
51020;SDS011;38907;45.562;8.856;2024-02-14T09:42:56;16.48;;;12.45;;
51020;SDS011;38907;45.562;8.856;2024-02-14T09:48:04;19.45;;;13.20;;
51020;SDS011;38907;45.562;8.856;2024-02-14T09:53:06;20.40;;;12.93;;
51020;SDS011;38907;45.562;8.856;2024-02-14T10:03:13;18.63;;;13.27;;
51020;SDS011;38907;45.562;8.856;2024-02-14T10:08:16;19.27;;;12.93;;
51020;SDS011;38907;45.562;8.856;2024-02-14T10:13:22;20.38;;;13.23;;
51020;SDS011;38907;45.562;8.856;2024-02-14T10:18:24;20.48;;;14.25;;
51020;SDS011;38907;45.562;8.856;2024-02-14T10:23:27;19.00;;;13.07;;
51020;SDS011;38907;45.562;8.856;2024-02-14T10:28:31;17.38;;;12.52;;
51020;SDS011;38907;45.562;8.856;2024-02-14T10:33:34;23.00;;;14.27;;
51020;SDS011;38907;45.562;8.856;2024-02-14T10:38:38;20.73;;;13.98;;
51020;SDS011;38907;45.562;8.856;2024-02-14T10:43:43;19.00;;;13.98;;
51020;SDS011;38907;45.562;8.856;2024-02-14T10:48:45;20.08;;;13.88;;
51020;SDS011;38907;45.562;8.856;2024-02-14T10:53:47;20.50;;;13.80;;
51020;SDS011;38907;45.562;8.856;2024-02-14T11:04:07;17.88;;;13.73;;
51020;SDS011;38907;45.562;8.856;2024-02-14T11:09:11;25.67;;;15.32;;
51020;SDS011;38907;45.562;8.856;2024-02-14T11:14:18;23.98;;;16.58;;
51020;SDS011;38907;45.562;8.856;2024-02-14T11:19:29;20.52;;;17.45;;
51020;SDS011;38907;45.562;8.856;2024-02-14T11:24:33;24.10;;;19.48;;
51020;SDS011;38907;45.562;8.856;2024-02-14T11:29:40;26.90;;;19.73;;
51020;SDS011;38907;45.562;8.856;2024-02-14T11:34:42;26.02;;;21.98;;
51020;SDS011;38907;45.562;8.856;2024-02-14T11:39:45;30.55;;;21.90;;
51020;SDS011;38907;45.562;8.856;2024-02-14T11:44:49;27.30;;;20.70;;
51020;SDS011;38907;45.562;8.856;2024-02-14T11:49:50;25.17;;;19.33;;
51020;SDS011;38907;45.562;8.856;2024-02-14T11:54:53;27.92;;;19.40;;
51020;SDS011;38907;45.562;8.856;2024-02-14T11:59:58;27.08;;;19.02;;
51020;SDS011;38907;45.562;8.856;2024-02-14T12:05:00;26.70;;;19.38;;
51020;SDS011;38907;45.562;8.856;2024-02-14T12:10:05;29.35;;;21.20;;
51020;SDS011;38907;45.562;8.856;2024-02-14T12:15:10;25.63;;;21.30;;
51020;SDS011;38907;45.562;8.856;2024-02-14T12:20:15;29.40;;;21.67;;
51020;SDS011;38907;45.562;8.856;2024-02-14T12:25:17;25.65;;;20.60;;
51020;SDS011;38907;45.562;8.856;2024-02-14T12:30:20;27.20;;;20.08;;
51020;SDS011;38907;45.562;8.856;2024-02-14T12:35:23;25.25;;;20.00;;
51020;SDS011;38907;45.562;8.856;2024-02-14T12:40:25;26.73;;;18.77;;
51020;SDS011;38907;45.562;8.856;2024-02-14T12:45:28;26.95;;;19.88;;
51020;SDS011;38907;45.562;8.856;2024-02-14T12:50:31;24.48;;;18.27;;
51020;SDS011;38907;45.562;8.856;2024-02-14T12:55:33;25.48;;;18.65;;
51020;SDS011;38907;45.562;8.856;2024-02-14T13:00:36;20.25;;;16.00;;
51020;SDS011;38907;45.562;8.856;2024-02-14T13:05:39;22.65;;;16.98;;
51020;SDS011;38907;45.562;8.856;2024-02-14T13:15:46;23.13;;;15.50;;
51020;SDS011;38907;45.562;8.856;2024-02-14T13:20:47;25.45;;;15.70;;
51020;SDS011;38907;45.562;8.856;2024-02-14T13:25:56;20.85;;;14.35;;
51020;SDS011;38907;45.562;8.856;2024-02-14T13:31:00;21.45;;;13.88;;
51020;SDS011;38907;45.562;8.856;2024-02-14T13:41:03;21.50;;;14.93;;
51020;SDS011;38907;45.562;8.856;2024-02-14T13:46:07;26.10;;;15.65;;
51020;SDS011;38907;45.562;8.856;2024-02-14T13:51:09;23.98;;;16.25;;
51020;SDS011;38907;45.562;8.856;2024-02-14T13:56:11;23.85;;;17.27;;
51020;SDS011;38907;45.562;8.856;2024-02-14T14:01:14;24.13;;;17.60;;
51020;SDS011;38907;45.562;8.856;2024-02-14T14:06:17;24.30;;;16.67;;
51020;SDS011;38907;45.562;8.856;2024-02-14T14:11:19;22.85;;;15.90;;
51020;SDS011;38907;45.562;8.856;2024-02-14T14:16:22;20.95;;;15.55;;
51020;SDS011;38907;45.562;8.856;2024-02-14T14:21:24;20.25;;;14.10;;
51020;SDS011;38907;45.562;8.856;2024-02-14T14:26:26;20.98;;;14.35;;
51020;SDS011;38907;45.562;8.856;2024-02-14T14:31:29;20.55;;;14.00;;
51020;SDS011;38907;45.562;8.856;2024-02-14T14:41:33;19.83;;;13.32;;
51020;SDS011;38907;45.562;8.856;2024-02-14T14:46:36;21.15;;;13.05;;
51020;SDS011;38907;45.562;8.856;2024-02-14T14:51:42;21.52;;;13.30;;
51020;SDS011;38907;45.562;8.856;2024-02-14T14:56:44;19.35;;;13.60;;
51020;SDS011;38907;45.562;8.856;2024-02-14T15:01:47;18.10;;;12.97;;
51020;SDS011;38907;45.562;8.856;2024-02-14T15:06:49;18.35;;;13.68;;
51020;SDS011;38907;45.562;8.856;2024-02-14T15:11:52;18.30;;;12.20;;
51020;SDS011;38907;45.562;8.856;2024-02-14T15:16:58;19.65;;;12.90;;
51020;SDS011;38907;45.562;8.856;2024-02-14T15:27:03;21.05;;;14.00;;
51020;SDS011;38907;45.562;8.856;2024-02-14T15:32:07;21.80;;;13.57;;
51020;SDS011;38907;45.562;8.856;2024-02-14T15:37:26;19.77;;;12.48;;
51020;SDS011;38907;45.562;8.856;2024-02-14T15:42:28;26.23;;;12.25;;
51020;SDS011;38907;45.562;8.856;2024-02-14T15:47:31;20.67;;;14.07;;
51020;SDS011;38907;45.562;8.856;2024-02-14T15:52:33;19.23;;;14.30;;
51020;SDS011;38907;45.562;8.856;2024-02-14T15:57:34;20.80;;;13.57;;
51020;SDS011;38907;45.562;8.856;2024-02-14T16:02:38;19.40;;;14.30;;
51020;SDS011;38907;45.562;8.856;2024-02-14T16:07:39;24.02;;;15.52;;
51020;SDS011;38907;45.562;8.856;2024-02-14T16:12:42;25.13;;;17.40;;
51020;SDS011;38907;45.562;8.856;2024-02-14T16:17:46;21.45;;;16.95;;
51020;SDS011;38907;45.562;8.856;2024-02-14T16:22:48;24.60;;;16.33;;
51020;SDS011;38907;45.562;8.856;2024-02-14T16:27:50;21.77;;;13.88;;
51020;SDS011;38907;45.562;8.856;2024-02-14T16:32:54;23.13;;;15.30;;
51020;SDS011;38907;45.562;8.856;2024-02-14T16:37:57;24.15;;;14.68;;
51020;SDS011;38907;45.562;8.856;2024-02-14T16:42:59;22.60;;;14.65;;
51020;SDS011;38907;45.562;8.856;2024-02-14T16:48:03;21.20;;;14.38;;
51020;SDS011;38907;45.562;8.856;2024-02-14T16:53:06;18.02;;;12.13;;
51020;SDS011;38907;45.562;8.856;2024-02-14T16:58:07;25.83;;;13.93;;
51020;SDS011;38907;45.562;8.856;2024-02-14T17:03:11;22.38;;;13.90;;
51020;SDS011;38907;45.562;8.856;2024-02-14T17:08:12;23.65;;;14.68;;
51020;SDS011;38907;45.562;8.856;2024-02-14T17:13:14;29.60;;;16.42;;
51020;SDS011;38907;45.562;8.856;2024-02-14T17:18:18;30.60;;;17.50;;
51020;SDS011;38907;45.562;8.856;2024-02-14T17:23:22;29.00;;;17.00;;
51020;SDS011;38907;45.562;8.856;2024-02-14T17:28:24;25.77;;;17.95;;
51020;SDS011;38907;45.562;8.856;2024-02-14T17:33:27;31.33;;;18.00;;
51020;SDS011;38907;45.562;8.856;2024-02-14T17:38:29;29.20;;;19.02;;
51020;SDS011;38907;45.562;8.856;2024-02-14T17:43:32;41.35;;;31.80;;
51020;SDS011;38907;45.562;8.856;2024-02-14T17:48:37;40.58;;;26.83;;
51020;SDS011;38907;45.562;8.856;2024-02-14T17:53:39;42.35;;;25.75;;
51020;SDS011;38907;45.562;8.856;2024-02-14T17:58:41;38.53;;;24.52;;
51020;SDS011;38907;45.562;8.856;2024-02-14T18:03:44;39.85;;;22.67;;
51020;SDS011;38907;45.562;8.856;2024-02-14T18:08:46;38.45;;;23.20;;
51020;SDS011;38907;45.562;8.856;2024-02-14T18:13:50;50.28;;;27.95;;
51020;SDS011;38907;45.562;8.856;2024-02-14T18:18:54;42.03;;;22.83;;
51020;SDS011;38907;45.562;8.856;2024-02-14T18:28:58;46.45;;;27.67;;
51020;SDS011;38907;45.562;8.856;2024-02-14T18:34:01;59.70;;;45.50;;
51020;SDS011;38907;45.562;8.856;2024-02-14T18:39:03;59.75;;;45.33;;
51020;SDS011;38907;45.562;8.856;2024-02-14T18:44:04;79.88;;;65.80;;
51020;SDS011;38907;45.562;8.856;2024-02-14T18:54:11;82.20;;;60.25;;
51020;SDS011;38907;45.562;8.856;2024-02-14T18:59:13;77.07;;;54.90;;
51020;SDS011;38907;45.562;8.856;2024-02-14T19:04:17;65.15;;;46.53;;
51020;SDS011;38907;45.562;8.856;2024-02-14T19:09:19;38.88;;;29.90;;
51020;SDS011;38907;45.562;8.856;2024-02-14T19:14:21;84.97;;;69.50;;
51020;SDS011;38907;45.562;8.856;2024-02-14T19:19:25;46.27;;;39.33;;
51020;SDS011;38907;45.562;8.856;2024-02-14T19:24:29;50.75;;;40.95;;
51020;SDS011;38907;45.562;8.856;2024-02-14T19:29:31;72.43;;;58.67;;
51020;SDS011;38907;45.562;8.856;2024-02-14T19:34:34;65.93;;;50.30;;
51020;SDS011;38907;45.562;8.856;2024-02-14T19:39:36;72.57;;;52.70;;
51020;SDS011;38907;45.562;8.856;2024-02-14T19:44:38;92.10;;;62.15;;
51020;SDS011;38907;45.562;8.856;2024-02-14T19:49:41;62.25;;;42.88;;
51020;SDS011;38907;45.562;8.856;2024-02-14T19:59:44;58.17;;;40.33;;
51020;SDS011;38907;45.562;8.856;2024-02-14T20:04:48;55.88;;;42.38;;
51020;SDS011;38907;45.562;8.856;2024-02-14T20:09:49;45.97;;;34.35;;
51020;SDS011;38907;45.562;8.856;2024-02-14T20:14:51;49.88;;;38.97;;
51020;SDS011;38907;45.562;8.856;2024-02-14T20:19:55;65.20;;;45.40;;
51020;SDS011;38907;45.562;8.856;2024-02-14T20:24:58;61.55;;;45.53;;
51020;SDS011;38907;45.562;8.856;2024-02-14T20:30:00;59.40;;;44.55;;
51020;SDS011;38907;45.562;8.856;2024-02-14T20:35:04;63.97;;;46.63;;
51020;SDS011;38907;45.562;8.856;2024-02-14T20:40:07;61.22;;;45.97;;
51020;SDS011;38907;45.562;8.856;2024-02-14T20:45:09;57.00;;;40.42;;
51020;SDS011;38907;45.562;8.856;2024-02-14T20:50:13;51.92;;;37.60;;
51020;SDS011;38907;45.562;8.856;2024-02-14T20:55:15;89.03;;;67.70;;
51020;SDS011;38907;45.562;8.856;2024-02-14T21:00:17;72.03;;;49.90;;
51020;SDS011;38907;45.562;8.856;2024-02-14T21:05:20;69.93;;;51.95;;
51020;SDS011;38907;45.562;8.856;2024-02-14T21:10:22;60.42;;;43.25;;
51020;SDS011;38907;45.562;8.856;2024-02-14T21:15:27;63.35;;;46.20;;
51020;SDS011;38907;45.562;8.856;2024-02-14T21:20:30;66.28;;;45.30;;
51020;SDS011;38907;45.562;8.856;2024-02-14T21:25:32;48.85;;;38.28;;
51020;SDS011;38907;45.562;8.856;2024-02-14T21:30:34;56.08;;;38.55;;
51020;SDS011;38907;45.562;8.856;2024-02-14T21:35:37;49.72;;;38.33;;
51020;SDS011;38907;45.562;8.856;2024-02-14T21:40:39;56.28;;;38.58;;
51020;SDS011;38907;45.562;8.856;2024-02-14T21:45:41;58.20;;;42.17;;
51020;SDS011;38907;45.562;8.856;2024-02-14T21:50:44;57.90;;;40.58;;
51020;SDS011;38907;45.562;8.856;2024-02-14T21:55:46;56.72;;;41.78;;
51020;SDS011;38907;45.562;8.856;2024-02-14T22:00:48;60.75;;;43.08;;
51020;SDS011;38907;45.562;8.856;2024-02-14T22:05:51;62.65;;;43.47;;
51020;SDS011;38907;45.562;8.856;2024-02-14T22:10:53;65.57;;;45.47;;
51020;SDS011;38907;45.562;8.856;2024-02-14T22:15:55;61.38;;;42.65;;
51020;SDS011;38907;45.562;8.856;2024-02-14T22:20:59;59.90;;;44.42;;
51020;SDS011;38907;45.562;8.856;2024-02-14T22:26:01;70.78;;;51.17;;
51020;SDS011;38907;45.562;8.856;2024-02-14T22:31:03;83.65;;;59.60;;
51020;SDS011;38907;45.562;8.856;2024-02-14T22:36:07;69.00;;;48.10;;
51020;SDS011;38907;45.562;8.856;2024-02-14T22:41:10;69.15;;;46.80;;
51020;SDS011;38907;45.562;8.856;2024-02-14T22:46:12;70.53;;;46.63;;
51020;SDS011;38907;45.562;8.856;2024-02-14T22:51:16;67.55;;;45.80;;
51020;SDS011;38907;45.562;8.856;2024-02-14T22:56:17;63.58;;;42.90;;
51020;SDS011;38907;45.562;8.856;2024-02-14T23:01:20;65.88;;;42.90;;
51020;SDS011;38907;45.562;8.856;2024-02-14T23:06:23;72.88;;;46.60;;
51020;SDS011;38907;45.562;8.856;2024-02-14T23:11:26;63.65;;;43.67;;
51020;SDS011;38907;45.562;8.856;2024-02-14T23:16:28;65.22;;;43.42;;
51020;SDS011;38907;45.562;8.856;2024-02-14T23:21:31;59.70;;;39.45;;
51020;SDS011;38907;45.562;8.856;2024-02-14T23:26:33;58.80;;;39.40;;
51020;SDS011;38907;45.562;8.856;2024-02-14T23:31:35;56.92;;;39.35;;
51020;SDS011;38907;45.562;8.856;2024-02-14T23:36:38;60.72;;;39.80;;
51020;SDS011;38907;45.562;8.856;2024-02-14T23:41:40;60.72;;;40.90;;
51020;SDS011;38907;45.562;8.856;2024-02-14T23:46:42;61.92;;;41.42;;
51020;SDS011;38907;45.562;8.856;2024-02-14T23:51:45;57.13;;;42.45;;
51020;SDS011;38907;45.562;8.856;2024-02-14T23:56:47;60.45;;;41.53;;
